createdAt,value
2023-02-02T00:00:27.790Z,41.41
2023-02-02T00:01:27.775Z,40.81
2023-02-02T00:04:49.343Z,37.09
2023-02-02T00:05:49.239Z,38.22
2023-02-02T00:07:50.306Z,40.71
2023-02-02T00:08:49.212Z,40.48
2023-02-02T00:09:49.233Z,40.37
2023-02-02T00:10:49.191Z,44.45
2023-02-02T00:11:49.175Z,48.68
2023-02-02T00:12:49.172Z,49.42
2023-02-02T00:13:49.160Z,42.86
2023-02-02T00:14:49.161Z,46.31
2023-02-02T00:15:49.338Z,48.29
2023-02-02T00:16:49.132Z,48.33
2023-02-02T00:17:49.114Z,48.59
2023-02-02T00:18:49.115Z,44.82
2023-02-02T00:19:49.105Z,42.79
2023-02-02T00:20:49.086Z,45.85
2023-02-02T00:21:49.088Z,47.32
2023-02-02T00:22:49.060Z,40.79
2023-02-02T00:23:49.042Z,44.19
2023-02-02T00:24:49.044Z,40.74
2023-02-02T00:25:49.032Z,40.46
2023-02-02T00:26:49.044Z,40.61
2023-02-02T00:27:49.006Z,46.15
2023-02-02T00:28:48.997Z,43.33
2023-02-02T00:29:49.000Z,42.42
2023-02-02T00:30:48.985Z,44.95
2023-02-02T00:31:49.031Z,43.85
2023-02-02T00:32:48.948Z,40.95
2023-02-02T00:33:49.595Z,40.23
2023-02-02T00:34:48.948Z,40.26
2023-02-02T00:35:48.916Z,41.11
2023-02-02T00:36:48.908Z,40.39
2023-02-02T00:37:48.900Z,40.34
2023-02-02T00:38:48.883Z,40.54
2023-02-02T00:39:48.886Z,40.30
2023-02-02T00:40:48.863Z,39.82
2023-02-02T00:41:48.853Z,39.68
2023-02-02T00:42:48.844Z,40.26
2023-02-02T00:43:48.830Z,39.34
2023-02-02T00:44:48.868Z,40.28
2023-02-02T00:45:48.853Z,41.02
2023-02-02T00:46:48.799Z,40.10
2023-02-02T00:47:48.819Z,39.73
2023-02-02T00:48:48.779Z,39.33
2023-02-02T00:49:48.781Z,40.04
2023-02-02T00:50:48.757Z,39.50
2023-02-02T00:51:48.849Z,39.70
2023-02-02T00:52:48.756Z,40.84
2023-02-02T00:53:48.770Z,40.65
2023-02-02T00:54:48.755Z,39.73
2023-02-02T00:55:48.708Z,39.60
2023-02-02T00:56:48.698Z,39.44
2023-02-02T00:57:48.711Z,40.07
2023-02-02T00:58:48.694Z,40.71
2023-02-02T00:59:48.678Z,39.38
2023-02-02T01:00:48.660Z,39.09
2023-02-02T01:01:48.804Z,39.45
2023-02-02T01:02:48.629Z,39.16
2023-02-02T01:03:48.836Z,38.71
2023-02-02T01:04:48.623Z,38.70
2023-02-02T01:05:48.597Z,39.60
2023-02-02T01:06:48.600Z,39.84
2023-02-02T01:07:48.582Z,39.19
2023-02-02T01:08:48.566Z,40.13
2023-02-02T01:09:48.563Z,39.53
2023-02-02T01:10:48.539Z,40.42
2023-02-02T01:11:48.539Z,40.37
2023-02-02T01:12:48.524Z,40.23
2023-02-02T01:13:48.526Z,39.76
2023-02-02T01:14:48.510Z,40.54
2023-02-02T01:15:48.513Z,40.73
2023-02-02T01:16:48.505Z,41.20
2023-02-02T01:17:48.475Z,41.18
2023-02-02T01:18:48.456Z,41.33
2023-02-02T01:19:48.455Z,41.04
2023-02-02T01:20:48.442Z,40.34
2023-02-02T01:21:48.422Z,39.89
2023-02-02T01:22:48.413Z,39.82
2023-02-02T01:23:48.400Z,39.16
2023-02-02T01:24:48.406Z,39.14
2023-02-02T01:25:48.380Z,39.89
2023-02-02T01:26:48.420Z,40.07
2023-02-02T01:27:48.356Z,41.08
2023-02-02T01:28:48.347Z,41.27
2023-02-02T01:29:48.332Z,40.19
2023-02-02T01:30:48.363Z,38.98
2023-02-02T01:31:48.371Z,39.14
2023-02-02T01:32:48.309Z,39.62
2023-02-02T01:33:48.300Z,39.93
2023-02-02T01:34:48.397Z,40.85
2023-02-02T01:35:48.282Z,39.80
2023-02-02T01:36:48.273Z,46.55
2023-02-02T01:37:48.250Z,42.12
2023-02-02T01:38:48.250Z,39.66
2023-02-02T01:39:48.233Z,38.99
2023-02-02T01:40:49.840Z,39.11
2023-02-02T01:41:48.213Z,39.69
2023-02-02T01:42:48.215Z,44.77
2023-02-02T01:43:48.192Z,39.99
2023-02-02T01:44:48.183Z,45.08
2023-02-02T01:45:48.204Z,40.25
2023-02-02T01:46:48.164Z,38.96
2023-02-02T01:47:48.150Z,38.66
2023-02-02T01:48:48.143Z,40.71
2023-02-02T01:49:48.132Z,45.93
2023-02-02T01:50:48.127Z,48.14
2023-02-02T01:51:48.110Z,48.98
2023-02-02T01:52:48.296Z,52.03
2023-02-02T01:53:48.088Z,52.21
2023-02-02T01:54:48.091Z,46.67
2023-02-02T01:55:48.075Z,43.09
2023-02-02T01:56:48.059Z,40.64
2023-02-02T01:57:48.055Z,39.69
2023-02-02T01:58:48.038Z,40.46
2023-02-02T01:59:48.039Z,39.52
2023-02-02T02:00:48.020Z,39.97
2023-02-02T02:01:47.993Z,39.98
2023-02-02T02:02:48.043Z,40.56
2023-02-02T02:03:47.971Z,38.76
2023-02-02T02:04:47.966Z,39.73
2023-02-02T02:05:48.025Z,39.95
2023-02-02T02:06:47.944Z,39.43
2023-02-02T02:07:47.930Z,39.65
2023-02-02T02:08:47.919Z,40.72
2023-02-02T02:09:47.922Z,40.39
2023-02-02T02:10:47.922Z,39.74
2023-02-02T02:11:47.890Z,39.12
2023-02-02T02:12:47.890Z,39.66
2023-02-02T02:13:47.877Z,39.84
2023-02-02T02:14:47.871Z,39.23
2023-02-02T02:15:47.880Z,39.30
2023-02-02T02:16:47.891Z,39.41
2023-02-02T02:17:47.836Z,40.88
2023-02-02T02:18:47.835Z,40.35
2023-02-02T02:19:47.929Z,45.03
2023-02-02T02:20:47.801Z,39.93
2023-02-02T02:21:47.898Z,40.19
2023-02-02T02:22:47.786Z,40.15
2023-02-02T02:23:47.783Z,39.55
2023-02-02T02:24:47.757Z,44.89
2023-02-02T02:25:47.753Z,40.44
2023-02-02T02:26:47.891Z,39.98
2023-02-02T02:27:47.725Z,40.10
2023-02-02T02:28:47.711Z,41.84
2023-02-02T02:29:47.821Z,41.92
2023-02-02T02:30:47.771Z,42.85
2023-02-02T02:31:47.768Z,45.10
2023-02-02T02:32:47.689Z,45.27
2023-02-02T02:33:47.680Z,41.27
2023-02-02T02:34:47.848Z,41.59
2023-02-02T02:35:47.642Z,41.96
2023-02-02T02:36:47.639Z,44.99
2023-02-02T02:37:47.665Z,41.35
2023-02-02T02:38:47.611Z,40.69
2023-02-02T02:39:47.608Z,40.26
2023-02-02T02:40:47.699Z,41.12
2023-02-02T02:41:47.597Z,44.50
2023-02-02T02:42:47.569Z,41.45
2023-02-02T02:43:47.560Z,40.11
2023-02-02T02:44:47.561Z,39.72
2023-02-02T02:45:47.549Z,41.22
2023-02-02T02:46:47.540Z,42.06
2023-02-02T02:47:47.523Z,41.72
2023-02-02T02:48:47.531Z,42.56
2023-02-02T02:49:47.493Z,41.98
2023-02-02T02:50:47.504Z,41.53
2023-02-02T02:51:47.482Z,40.60
2023-02-02T02:52:47.465Z,41.98
2023-02-02T02:53:47.452Z,43.30
2023-02-02T02:54:47.438Z,41.71
2023-02-02T02:55:47.442Z,40.93
2023-02-02T02:56:47.430Z,41.14
2023-02-02T02:57:47.408Z,42.19
2023-02-02T02:58:47.400Z,40.35
2023-02-02T02:59:47.388Z,39.56
2023-02-02T03:00:47.379Z,39.50
2023-02-02T03:01:47.448Z,40.86
2023-02-02T03:02:47.378Z,41.57
2023-02-02T03:03:47.356Z,42.80
2023-02-02T03:04:47.335Z,41.92
2023-02-02T03:05:47.342Z,41.66
2023-02-02T03:06:47.332Z,41.20
2023-02-02T03:07:47.327Z,46.70
2023-02-02T03:08:47.294Z,44.71
2023-02-02T03:09:47.288Z,41.04
2023-02-02T03:10:47.275Z,41.45
2023-02-02T03:11:47.277Z,40.90
2023-02-02T03:12:47.251Z,40.86
2023-02-02T03:13:47.249Z,43.09
2023-02-02T03:14:47.232Z,42.55
2023-02-02T03:15:47.277Z,47.69
2023-02-02T03:16:47.230Z,40.46
2023-02-02T03:17:47.205Z,41.07
2023-02-02T03:18:47.189Z,41.86
2023-02-02T03:19:47.182Z,43.00
2023-02-02T03:20:47.175Z,41.74
2023-02-02T03:21:47.179Z,41.47
2023-02-02T03:22:47.143Z,42.75
2023-02-02T03:23:47.138Z,41.59
2023-02-02T03:24:47.131Z,43.48
2023-02-02T03:25:47.116Z,43.28
2023-02-02T03:26:47.165Z,42.17
2023-02-02T03:27:47.139Z,42.04
2023-02-02T03:28:47.097Z,42.12
2023-02-02T03:29:47.072Z,42.74
2023-02-02T03:30:47.152Z,42.73
2023-02-02T03:31:47.108Z,42.60
2023-02-02T03:32:47.052Z,45.32
2023-02-02T03:33:47.038Z,46.37
2023-02-02T03:34:47.019Z,42.17
2023-02-02T03:35:47.988Z,41.47
2023-02-02T03:36:47.005Z,45.23
2023-02-02T03:37:46.993Z,42.73
2023-02-02T03:38:46.982Z,40.58
2023-02-02T03:39:46.972Z,39.97
2023-02-02T03:40:46.960Z,41.33
2023-02-02T03:41:46.957Z,42.81
2023-02-02T03:42:46.948Z,42.71
2023-02-02T03:43:46.924Z,45.72
2023-02-02T03:44:46.919Z,42.32
2023-02-02T03:45:46.900Z,42.44
2023-02-02T03:46:46.939Z,45.12
2023-02-02T03:47:46.935Z,43.29
2023-02-02T03:48:46.881Z,48.04
2023-02-02T03:49:46.864Z,45.63
2023-02-02T03:50:46.858Z,43.32
2023-02-02T03:51:46.843Z,48.08
2023-02-02T03:52:46.969Z,44.36
2023-02-02T03:53:46.821Z,42.33
2023-02-02T03:54:46.818Z,43.02
2023-02-02T03:55:46.809Z,45.64
2023-02-02T03:56:46.798Z,46.44
2023-02-02T03:57:46.792Z,47.12
2023-02-02T03:58:46.776Z,41.19
2023-02-02T03:59:46.768Z,41.86
2023-02-02T04:00:46.759Z,40.84
2023-02-02T04:01:46.784Z,45.41
2023-02-02T04:02:46.819Z,47.94
2023-02-02T04:03:46.717Z,43.37
2023-02-02T04:04:46.779Z,42.60
2023-02-02T04:05:46.699Z,43.03
2023-02-02T04:06:46.696Z,43.41
2023-02-02T04:07:46.698Z,43.01
2023-02-02T04:08:46.763Z,48.00
2023-02-02T04:09:46.658Z,46.43
2023-02-02T04:10:46.650Z,50.34
2023-02-02T04:11:46.638Z,43.61
2023-02-02T04:12:46.640Z,44.42
2023-02-02T04:13:46.624Z,48.59
2023-02-02T04:14:46.606Z,52.81
2023-02-02T04:15:46.594Z,48.51
2023-02-02T04:16:46.610Z,43.24
2023-02-02T04:17:46.590Z,48.13
2023-02-02T04:18:46.613Z,49.33
2023-02-02T04:19:46.560Z,49.21
2023-02-02T04:20:46.562Z,53.16
2023-02-02T04:21:46.562Z,47.65
2023-02-02T04:22:46.521Z,42.79
2023-02-02T04:23:46.528Z,43.65
2023-02-02T04:24:46.506Z,55.17
2023-02-02T04:25:46.495Z,51.11
2023-02-02T04:26:46.527Z,45.41
2023-02-02T04:27:46.470Z,48.62
2023-02-02T04:28:46.475Z,45.12
2023-02-02T04:29:46.448Z,45.63
2023-02-02T04:30:46.537Z,48.64
2023-02-02T04:31:46.456Z,47.26
2023-02-02T04:32:46.418Z,48.92
2023-02-02T04:33:46.444Z,49.35
2023-02-02T04:34:46.403Z,48.31
2023-02-02T04:35:46.407Z,50.10
2023-02-02T04:36:46.388Z,48.58
2023-02-02T04:37:46.365Z,46.85
2023-02-02T04:38:46.373Z,49.15
2023-02-02T04:39:46.341Z,47.43
2023-02-02T04:40:46.331Z,47.05
2023-02-02T04:41:46.331Z,50.08
2023-02-02T04:42:46.314Z,50.32
2023-02-02T04:43:46.318Z,46.73
2023-02-02T04:44:46.300Z,46.82
2023-02-02T04:45:46.320Z,46.90
2023-02-02T04:46:46.296Z,45.17
2023-02-02T04:47:46.252Z,49.86
2023-02-02T04:48:46.263Z,47.18
2023-02-02T04:49:46.232Z,50.87
2023-02-02T04:50:46.227Z,52.56
2023-02-02T04:51:46.224Z,46.39
2023-02-02T04:52:46.227Z,51.36
2023-02-02T04:53:46.209Z,45.04
2023-02-02T04:54:46.185Z,48.49
2023-02-02T04:55:46.173Z,46.87
2023-02-02T04:56:46.174Z,47.92
2023-02-02T04:57:46.152Z,45.67
2023-02-02T04:58:46.165Z,45.40
2023-02-02T04:59:46.129Z,51.10
2023-02-02T05:00:46.151Z,52.20
2023-02-02T05:01:46.112Z,53.23
2023-02-02T05:02:46.120Z,47.16
2023-02-02T05:03:46.101Z,48.19
2023-02-02T05:04:46.182Z,51.35
2023-02-02T05:05:46.088Z,57.87
2023-02-02T05:06:46.083Z,49.06
2023-02-02T05:07:46.049Z,52.81
2023-02-02T05:08:46.060Z,49.96
2023-02-02T05:09:46.041Z,53.06
2023-02-02T05:10:46.021Z,53.58
2023-02-02T05:11:46.029Z,53.35
2023-02-02T05:12:47.153Z,52.06
2023-02-02T05:13:47.131Z,50.66
2023-02-02T05:14:47.112Z,52.80
2023-02-02T05:15:47.131Z,57.16
2023-02-02T05:16:47.147Z,50.40
2023-02-02T05:17:47.101Z,52.32
2023-02-02T05:18:47.088Z,52.27
2023-02-02T05:19:47.093Z,57.45
2023-02-02T05:20:47.073Z,56.10
2023-02-02T05:21:48.725Z,55.04
2023-02-02T05:22:47.018Z,53.89
2023-02-02T05:23:47.051Z,55.16
2023-02-02T05:24:47.051Z,52.93
2023-02-02T05:25:47.030Z,50.44
2023-02-02T05:26:47.080Z,49.74
2023-02-02T05:27:46.972Z,48.39
2023-02-02T05:28:46.977Z,51.97
2023-02-02T05:29:46.986Z,53.09
2023-02-02T05:30:46.978Z,53.97
2023-02-02T05:31:46.995Z,52.54
2023-02-02T05:32:46.915Z,53.38
2023-02-02T05:33:46.938Z,57.93
2023-02-02T05:34:46.932Z,49.93
2023-02-02T05:35:46.942Z,55.17
2023-02-02T05:36:46.891Z,51.51
2023-02-02T05:37:46.879Z,52.95
2023-02-02T05:38:46.859Z,57.72
2023-02-02T05:39:46.911Z,52.53
2023-02-02T05:40:46.854Z,49.53
2023-02-02T05:41:46.869Z,49.07
2023-02-02T05:42:46.829Z,51.03
2023-02-02T05:43:46.824Z,53.89
2023-02-02T05:44:46.834Z,47.62
2023-02-02T05:45:46.840Z,49.89
2023-02-02T05:46:46.796Z,51.54
2023-02-02T05:47:46.788Z,52.07
2023-02-02T05:48:46.805Z,52.99
2023-02-02T05:49:46.790Z,50.56
2023-02-02T05:50:46.787Z,58.80
2023-02-02T05:51:46.763Z,58.11
2023-02-02T05:52:46.733Z,56.20
2023-02-02T05:53:46.756Z,52.68
2023-02-02T05:54:46.806Z,56.13
2023-02-02T05:55:46.698Z,57.49
2023-02-02T05:56:46.681Z,60.10
2023-02-02T05:57:46.687Z,58.57
2023-02-02T05:58:46.686Z,58.14
2023-02-02T05:59:46.656Z,58.00
2023-02-02T06:00:46.652Z,60.23
2023-02-02T06:01:47.703Z,59.94
2023-02-02T06:02:46.664Z,59.86
2023-02-02T06:03:46.711Z,60.59
2023-02-02T06:04:46.633Z,61.16
2023-02-02T06:05:46.619Z,61.02
2023-02-02T06:06:46.673Z,61.44
2023-02-02T06:07:46.608Z,61.23
2023-02-02T06:08:46.577Z,61.87
2023-02-02T06:09:46.589Z,60.90
2023-02-02T06:10:46.556Z,61.84
2023-02-02T06:11:46.557Z,59.52
2023-02-02T06:12:46.538Z,60.66
2023-02-02T06:13:46.536Z,62.41
2023-02-02T06:14:46.517Z,63.31
2023-02-02T06:16:14.527Z,65.53
2023-02-02T06:16:53.099Z,65.27
2023-02-02T06:17:46.496Z,64.74
2023-02-02T06:18:46.504Z,64.29
2023-02-02T06:19:46.484Z,63.41
2023-02-02T06:20:46.460Z,63.89
2023-02-02T06:21:46.474Z,63.11
2023-02-02T06:22:46.480Z,64.85
2023-02-02T06:24:01.274Z,62.94
2023-02-02T06:24:46.491Z,65.94
2023-02-02T06:25:46.507Z,65.83
2023-02-02T06:26:46.641Z,65.41
2023-02-02T06:27:46.629Z,65.28
2023-02-02T06:28:47.249Z,66.41
2023-02-02T06:29:46.437Z,66.03
2023-02-02T06:30:46.660Z,66.55
2023-02-02T06:31:46.722Z,67.09
2023-02-02T06:32:46.450Z,66.20
2023-02-02T06:33:46.396Z,64.71
2023-02-02T06:34:46.640Z,65.32
2023-02-02T06:35:46.422Z,66.33
2023-02-02T06:36:46.475Z,63.64
2023-02-02T06:37:46.446Z,62.10
2023-02-02T06:38:46.531Z,62.71
2023-02-02T06:39:46.429Z,61.90
2023-02-02T06:40:46.379Z,60.69
2023-02-02T06:41:46.380Z,63.71
2023-02-02T06:42:46.495Z,61.62
2023-02-02T06:43:47.426Z,63.20
2023-02-02T06:44:46.407Z,61.34
2023-02-02T06:45:46.359Z,62.36
2023-02-02T06:46:46.270Z,63.51
2023-02-02T06:47:46.246Z,62.16
2023-02-02T06:48:46.639Z,62.19
2023-02-02T06:49:46.891Z,65.06
2023-02-02T06:50:46.634Z,66.19
2023-02-02T06:51:46.406Z,63.70
2023-02-02T06:52:46.361Z,62.37
2023-02-02T06:53:46.376Z,58.97
2023-02-02T06:54:46.393Z,59.47
2023-02-02T06:55:46.442Z,57.80
2023-02-02T06:56:46.441Z,58.37
2023-02-02T06:57:46.355Z,61.73
2023-02-02T06:58:46.382Z,59.28
2023-02-02T06:59:46.293Z,58.37
2023-02-02T07:00:46.426Z,62.37
2023-02-02T07:01:46.254Z,61.03
2023-02-02T07:02:46.158Z,60.58
2023-02-02T07:03:46.286Z,60.81
2023-02-02T07:04:46.214Z,58.86
2023-02-02T07:05:46.297Z,57.37
2023-02-02T07:06:46.184Z,60.19
2023-02-02T07:07:46.262Z,59.54
2023-02-02T07:08:51.238Z,55.59
2023-02-02T07:09:47.239Z,56.85
2023-02-02T07:11:14.445Z,56.07
2023-02-02T07:11:47.203Z,55.95
2023-02-02T07:12:46.174Z,55.67
2023-02-02T07:13:46.076Z,54.57
2023-02-02T07:14:46.059Z,56.05
2023-02-02T07:15:46.098Z,57.23
2023-02-02T07:16:46.126Z,59.00
2023-02-02T07:17:45.945Z,57.68
2023-02-02T07:18:46.052Z,56.58
2023-02-02T07:19:46.020Z,56.51
2023-02-02T07:20:46.035Z,59.91
2023-02-02T07:21:46.863Z,60.15
2023-02-02T07:53:06.620Z,64.84
2023-02-02T07:54:06.582Z,65.77
2023-02-02T07:55:14.271Z,66.65
2023-02-02T07:56:10.027Z,67.02
2023-02-02T07:57:07.603Z,68.85
2023-02-02T07:58:06.549Z,65.30
2023-02-02T07:59:06.449Z,64.15
2023-02-02T08:00:06.525Z,63.46
2023-02-02T08:01:06.529Z,63.87
2023-02-02T08:02:06.459Z,67.07
2023-02-02T08:03:06.460Z,67.20
2023-02-02T08:04:09.112Z,65.33
2023-02-02T08:05:06.390Z,64.20
2023-02-02T08:06:06.388Z,65.50
2023-02-02T08:07:06.373Z,65.46
2023-02-02T08:08:06.420Z,64.64
2023-02-02T08:09:06.422Z,66.35
2023-02-02T08:10:06.340Z,66.73
2023-02-02T08:11:06.396Z,64.72
2023-02-02T08:12:06.359Z,63.95
2023-02-02T08:13:06.323Z,63.93
2023-02-02T08:14:06.291Z,64.68
2023-02-02T08:15:06.281Z,62.93
2023-02-02T08:16:06.332Z,61.45
2023-02-02T08:17:06.285Z,62.60
2023-02-02T08:18:06.253Z,62.93
2023-02-02T08:19:06.263Z,61.72
2023-02-02T08:20:06.243Z,61.89
2023-02-02T08:21:06.233Z,57.80
2023-02-02T08:22:06.213Z,56.43
2023-02-02T08:23:06.216Z,58.63
2023-02-02T08:24:06.188Z,58.61
2023-02-02T08:25:06.190Z,60.75
2023-02-02T08:26:06.204Z,62.81
2023-02-02T08:27:06.175Z,64.58
2023-02-02T08:28:07.100Z,65.35
2023-02-02T08:29:06.184Z,65.27
2023-02-02T08:30:06.309Z,63.53
2023-02-02T08:31:06.252Z,64.20
2023-02-02T08:32:06.194Z,62.60
2023-02-02T08:33:06.184Z,63.61
2023-02-02T08:34:06.092Z,63.42
2023-02-02T08:35:06.080Z,61.44
2023-02-02T08:36:06.053Z,62.69
2023-02-02T08:37:06.146Z,63.18
2023-02-02T08:38:06.055Z,62.27
2023-02-02T08:39:06.032Z,60.79
2023-02-02T08:40:06.083Z,59.38
2023-02-02T08:41:06.004Z,57.29
2023-02-02T08:42:06.008Z,58.93
2023-02-02T08:50:37.693Z,60.76
2023-02-02T08:51:37.683Z,61.37
2023-02-02T08:52:42.627Z,59.49
2023-02-02T08:53:37.729Z,59.88
2023-02-02T08:54:37.572Z,60.70
2023-02-02T08:55:37.640Z,59.98
2023-02-02T08:56:37.593Z,61.03
2023-02-02T08:57:37.511Z,59.78
2023-02-02T08:58:37.561Z,60.36
2023-02-02T08:59:38.035Z,59.64
2023-02-02T09:00:37.509Z,60.51
2023-02-02T09:01:37.544Z,60.94
2023-02-02T09:02:37.706Z,61.01
2023-02-02T09:03:37.501Z,62.00
2023-02-02T09:04:37.467Z,61.12
2023-02-02T09:05:37.467Z,61.49
2023-02-02T09:06:37.486Z,59.75
2023-02-02T09:07:37.479Z,60.83
2023-02-02T09:08:37.499Z,60.77
2023-02-02T09:09:37.440Z,60.76
2023-02-02T09:10:37.506Z,61.07
2023-02-02T09:11:37.440Z,60.79
2023-02-02T09:12:37.511Z,60.89
2023-02-02T09:13:37.402Z,61.50
2023-02-02T09:14:37.352Z,60.88
2023-02-02T09:15:42.879Z,61.29
2023-02-02T09:16:37.398Z,61.07
2023-02-02T09:17:37.314Z,61.05
2023-02-02T09:18:37.393Z,60.81
2023-02-02T09:19:37.322Z,63.69
2023-02-02T09:20:37.324Z,60.49
2023-02-02T09:21:37.619Z,59.70
2023-02-02T09:22:37.330Z,61.54
2023-02-02T09:23:37.284Z,61.11
2023-02-02T09:24:37.264Z,61.75
2023-02-02T09:25:37.229Z,61.62
2023-02-02T09:26:37.259Z,62.37
2023-02-02T09:27:37.280Z,61.60
2023-02-02T09:28:39.162Z,60.20
2023-02-02T09:29:37.176Z,60.78
2023-02-02T09:30:37.256Z,62.42
2023-02-02T09:31:37.282Z,61.32
2023-02-02T09:32:37.172Z,61.15
2023-02-02T09:33:37.145Z,60.04
2023-02-02T09:34:38.682Z,59.57
2023-02-02T09:35:37.118Z,60.31
2023-02-02T09:36:37.149Z,59.93
2023-02-02T09:37:37.116Z,59.43
2023-02-02T09:38:37.099Z,59.25
2023-02-02T09:39:37.100Z,59.95
2023-02-02T09:40:37.067Z,62.44
2023-02-02T09:41:37.108Z,61.62
2023-02-02T09:42:37.163Z,61.19
2023-02-02T09:43:37.033Z,60.78
2023-02-02T09:44:37.062Z,58.95
2023-02-02T09:45:37.040Z,61.40
2023-02-02T09:46:37.034Z,61.16
2023-02-02T09:47:36.984Z,60.19
2023-02-02T09:48:37.014Z,59.93
2023-02-02T09:49:36.976Z,61.10
2023-02-02T09:50:36.957Z,61.44
2023-02-02T09:51:36.939Z,62.44
2023-02-02T09:52:36.996Z,61.71
2023-02-02T09:53:43.249Z,59.49
2023-02-02T09:54:37.918Z,59.43
2023-02-02T09:55:37.022Z,58.79
2023-02-02T09:56:36.940Z,59.03
2023-02-02T09:57:36.902Z,57.72
2023-02-02T09:58:36.870Z,58.07
2023-02-02T09:59:36.854Z,58.48
2023-02-02T10:00:36.865Z,56.93
2023-02-02T10:01:36.866Z,58.91
2023-02-02T10:02:36.845Z,58.14
2023-02-02T10:03:36.869Z,56.37
2023-02-02T10:04:36.846Z,55.75
2023-02-02T10:05:36.809Z,57.59
2023-02-02T10:06:36.822Z,56.28
2023-02-02T10:07:36.827Z,58.24
2023-02-02T10:08:36.782Z,56.89
2023-02-02T10:09:36.752Z,57.17
2023-02-02T10:10:36.808Z,55.38
2023-02-02T10:11:36.748Z,55.90
2023-02-02T10:12:36.795Z,59.12
2023-02-02T10:13:36.732Z,57.80
2023-02-02T10:14:36.786Z,58.02
2023-02-02T10:15:36.736Z,57.21
2023-02-02T10:16:36.677Z,55.84
2023-02-02T10:17:36.682Z,58.39
2023-02-02T10:18:36.656Z,57.72
2023-02-02T10:19:36.672Z,57.53
2023-02-02T10:20:36.637Z,57.60
2023-02-02T10:21:36.638Z,57.70
2023-02-02T10:22:36.636Z,54.77
2023-02-02T10:23:36.622Z,57.14
2023-02-02T10:24:36.619Z,59.41
2023-02-02T10:25:36.607Z,58.94
2023-02-02T10:26:36.610Z,58.50
2023-02-02T10:27:36.603Z,58.17
2023-02-02T10:28:36.571Z,58.42
2023-02-02T10:29:48.549Z,57.69
2023-02-02T10:30:37.636Z,56.87
2023-02-02T10:31:36.643Z,55.22
2023-02-02T10:32:36.592Z,56.79
2023-02-02T10:33:36.737Z,59.04
2023-02-02T10:34:36.520Z,56.46
2023-02-02T10:35:36.478Z,55.91
2023-02-02T10:36:36.514Z,56.50
2023-02-02T10:37:36.450Z,55.70
2023-02-02T10:38:37.562Z,56.77
2023-02-02T10:41:59.846Z,57.63
2023-02-02T10:42:58.216Z,57.73
2023-02-02T10:43:58.119Z,57.57
2023-02-02T10:47:23.529Z,57.96
2023-02-02T10:48:23.616Z,58.01
2023-02-02T10:49:26.074Z,57.26
2023-02-02T10:50:23.901Z,59.72
2023-02-02T10:51:23.509Z,56.62
2023-02-02T10:52:23.482Z,55.81
2023-02-02T10:53:23.426Z,58.73
2023-02-02T10:54:23.393Z,58.56
2023-02-02T10:55:23.378Z,58.57
2023-02-02T10:56:23.455Z,57.01
2023-02-02T10:57:23.407Z,56.56
2023-02-02T10:58:23.400Z,59.49
2023-02-02T10:59:23.342Z,58.33
2023-02-02T11:00:23.802Z,56.73
2023-02-02T11:01:23.348Z,56.84
2023-02-02T11:02:23.356Z,54.29
2023-02-02T11:03:23.288Z,55.33
2023-02-02T11:04:23.337Z,59.06
2023-02-02T11:05:23.271Z,56.42
2023-02-02T11:06:23.267Z,57.95
2023-02-02T11:07:23.301Z,57.23
2023-02-02T11:08:23.295Z,58.96
2023-02-02T11:09:23.240Z,56.22
2023-02-02T11:10:23.399Z,55.42
2023-02-02T11:11:23.226Z,55.21
2023-02-02T11:12:23.212Z,54.29
2023-02-02T11:13:23.183Z,55.56
2023-02-02T11:14:23.191Z,53.59
2023-02-02T11:15:23.238Z,55.27
2023-02-02T11:16:23.242Z,54.52
2023-02-02T11:17:23.140Z,55.59
2023-02-02T11:18:23.153Z,53.77
2023-02-02T11:19:23.177Z,57.48
2023-02-02T11:20:23.463Z,59.01
2023-02-02T11:21:23.140Z,55.40
2023-02-02T11:22:23.141Z,56.13
2023-02-02T11:23:23.093Z,54.65
2023-02-02T11:24:23.104Z,55.73
2023-02-02T11:25:23.093Z,58.17
2023-02-02T11:26:23.118Z,59.56
2023-02-02T11:27:23.104Z,57.78
2023-02-02T11:28:23.032Z,58.01
2023-02-02T11:29:23.053Z,55.11
2023-02-02T11:30:23.280Z,57.03
2023-02-02T11:31:23.128Z,52.25
2023-02-02T11:32:22.995Z,56.68
2023-02-02T11:33:22.990Z,53.78
2023-02-02T11:34:23.036Z,54.30
2023-02-02T11:35:22.969Z,51.97
2023-02-02T11:36:22.955Z,53.62
2023-02-02T11:37:22.960Z,58.01
2023-02-02T11:38:22.995Z,57.84
2023-02-02T11:39:22.907Z,56.36
2023-02-02T11:40:23.090Z,56.40
2023-02-02T11:41:22.917Z,56.82
2023-02-02T11:42:22.962Z,56.95
2023-02-02T11:43:22.872Z,57.18
2023-02-02T11:44:22.864Z,54.60
2023-02-02T11:45:22.913Z,58.88
2023-02-02T11:46:22.909Z,52.97
2023-02-02T11:47:22.848Z,58.05
2023-02-02T11:48:22.884Z,56.76
2023-02-02T11:49:22.830Z,57.05
2023-02-02T11:50:23.101Z,58.14
2023-02-02T11:51:22.890Z,51.50
2023-02-02T11:52:22.799Z,53.97
2023-02-02T11:53:22.776Z,56.04
2023-02-02T11:54:22.779Z,56.36
2023-02-02T11:55:22.802Z,59.33
2023-02-02T11:56:22.762Z,58.06
2023-02-02T11:57:22.781Z,58.17
2023-02-02T11:58:22.706Z,57.86
2023-02-02T11:59:22.779Z,53.83
2023-02-02T12:00:23.017Z,55.14
2023-02-02T12:01:22.765Z,55.02
2023-02-02T12:02:22.772Z,57.18
2023-02-02T12:03:22.730Z,53.44
2023-02-02T12:04:22.737Z,56.29
2023-02-02T12:05:22.824Z,56.10
2023-02-02T12:06:22.667Z,53.05
2023-02-02T12:07:22.634Z,56.51
2023-02-02T12:08:22.629Z,57.83
2023-02-02T12:09:22.668Z,56.03
2023-02-02T12:10:22.991Z,55.32
2023-02-02T12:11:22.744Z,53.23
2023-02-02T12:12:22.640Z,56.38
2023-02-02T12:13:22.558Z,54.79
2023-02-02T12:14:22.575Z,56.34
2023-02-02T12:15:22.670Z,54.55
2023-02-02T12:16:23.069Z,57.38
2023-02-02T12:17:22.575Z,62.28
2023-02-02T12:18:22.515Z,61.34
2023-02-02T12:19:22.569Z,58.43
2023-02-02T12:20:22.563Z,58.73
2023-02-02T12:21:22.528Z,61.42
2023-02-02T12:22:22.482Z,58.12
2023-02-02T12:23:22.460Z,59.25
2023-02-02T12:24:22.450Z,56.89
2023-02-02T12:25:22.627Z,57.17
2023-02-02T12:26:22.543Z,58.24
2023-02-02T12:27:22.422Z,57.88
2023-02-02T12:28:22.391Z,56.87
2023-02-02T12:29:22.391Z,55.37
2023-02-02T12:30:22.377Z,57.34
2023-02-02T12:31:22.422Z,57.96
2023-02-02T12:32:22.337Z,57.62
2023-02-02T12:33:22.334Z,59.09
2023-02-02T12:34:22.326Z,58.56
2023-02-02T12:35:22.309Z,59.59
2023-02-02T12:36:22.334Z,57.93
2023-02-02T12:37:22.302Z,57.41
2023-02-02T12:38:22.286Z,60.17
2023-02-02T12:39:22.265Z,61.08
2023-02-02T12:40:22.259Z,60.30
2023-02-02T12:41:22.256Z,61.13
2023-02-02T12:42:22.266Z,58.85
2023-02-02T12:43:22.266Z,58.57
2023-02-02T12:44:22.215Z,59.09
2023-02-02T12:45:22.283Z,60.14
2023-02-02T12:46:22.382Z,59.30
2023-02-02T12:47:22.200Z,60.87
2023-02-02T12:48:22.194Z,57.85
2023-02-02T12:49:22.205Z,58.56
2023-02-02T12:50:22.157Z,57.10
2023-02-02T12:51:22.180Z,54.64
2023-02-02T12:52:22.140Z,55.98
2023-02-02T12:53:22.132Z,56.86
2023-02-02T12:54:33.944Z,58.34
2023-02-02T12:55:23.134Z,58.93
2023-02-02T12:56:22.133Z,58.21
2023-02-02T12:57:22.087Z,60.71
2023-02-02T12:58:22.081Z,60.27
2023-02-02T12:59:22.076Z,59.32
2023-02-02T13:00:22.049Z,58.77
2023-02-02T13:01:22.119Z,61.09
2023-02-02T13:02:22.102Z,60.74
2023-02-02T13:03:22.055Z,59.43
2023-02-02T13:04:22.039Z,61.28
2023-02-02T13:05:22.027Z,60.66
2023-02-02T13:06:21.991Z,60.83
2023-02-02T13:07:21.986Z,59.35
2023-02-02T13:08:21.957Z,59.86
2023-02-02T13:09:21.965Z,60.54
2023-02-02T13:10:21.948Z,61.17
2023-02-02T13:11:21.947Z,59.36
2023-02-02T13:12:21.938Z,60.12
2023-02-02T13:13:21.914Z,57.74
2023-02-02T13:14:21.920Z,58.95
2023-02-02T13:15:23.970Z,58.44
2023-02-02T13:16:22.096Z,61.62
2023-02-02T13:17:21.885Z,58.35
2023-02-02T13:18:21.869Z,60.00
2023-02-02T13:19:21.866Z,59.25
2023-02-02T13:20:21.988Z,58.76
2023-02-02T13:21:21.854Z,57.40
2023-02-02T13:22:21.999Z,58.38
2023-02-02T13:23:21.812Z,56.52
2023-02-02T13:24:21.842Z,58.27
2023-02-02T13:25:22.618Z,57.56
2023-02-02T13:26:21.947Z,58.67
2023-02-02T13:27:21.875Z,57.90
2023-02-02T13:28:21.763Z,58.13
2023-02-02T13:29:21.912Z,57.03
2023-02-02T13:30:21.848Z,55.73
2023-02-02T13:31:21.975Z,57.29
2023-02-02T13:32:21.723Z,48.19
2023-02-02T13:33:21.732Z,48.46
2023-02-02T13:34:21.720Z,51.64
2023-02-02T13:35:21.684Z,56.92
2023-02-02T13:36:23.109Z,51.84
2023-02-02T13:37:21.728Z,51.90
2023-02-02T13:38:21.663Z,50.60